sensor_id;sensor_type;location;lat;lon;timestamp;pressure;altitude;pressure_sealevel;temperature
49154;BMP280;49455;52.252;9.124;2023-03-04T00:00:44;100298.63;;;4.23
49154;BMP280;49455;52.252;9.124;2023-03-04T00:05:45;100293.41;;;4.21
49154;BMP280;49455;52.252;9.124;2023-03-04T00:10:45;100297.47;;;4.18
49154;BMP280;49455;52.252;9.124;2023-03-04T00:15:46;100285.78;;;4.09
49154;BMP280;49455;52.252;9.124;2023-03-04T00:20:47;100293.22;;;4.19
49154;BMP280;49455;52.252;9.124;2023-03-04T00:25:47;100302.47;;;4.17
49154;BMP280;49455;52.252;9.124;2023-03-04T00:30:48;100293.91;;;4.16
49154;BMP280;49455;52.252;9.124;2023-03-04T00:35:48;100293.56;;;4.10
49154;BMP280;49455;52.252;9.124;2023-03-04T00:40:48;100298.97;;;4.15
49154;BMP280;49455;52.252;9.124;2023-03-04T00:45:49;100293.38;;;4.07
49154;BMP280;49455;52.252;9.124;2023-03-04T00:50:49;100294.53;;;4.12
49154;BMP280;49455;52.252;9.124;2023-03-04T00:55:50;100296.66;;;4.19
49154;BMP280;49455;52.252;9.124;2023-03-04T01:00:50;100286.19;;;4.15
49154;BMP280;49455;52.252;9.124;2023-03-04T01:05:52;100289.00;;;4.19
49154;BMP280;49455;52.252;9.124;2023-03-04T01:10:52;100277.00;;;4.18
49154;BMP280;49455;52.252;9.124;2023-03-04T01:15:53;100280.16;;;4.14
49154;BMP280;49455;52.252;9.124;2023-03-04T01:20:53;100269.22;;;4.17
49154;BMP280;49455;52.252;9.124;2023-03-04T01:25:54;100269.66;;;4.10
49154;BMP280;49455;52.252;9.124;2023-03-04T01:30:54;100269.22;;;4.17
49154;BMP280;49455;52.252;9.124;2023-03-04T01:35:54;100252.31;;;4.19
49154;BMP280;49455;52.252;9.124;2023-03-04T01:40:55;100251.06;;;4.12
49154;BMP280;49455;52.252;9.124;2023-03-04T01:45:56;100241.03;;;4.15
49154;BMP280;49455;52.252;9.124;2023-03-04T01:50:59;100229.22;;;4.17
49154;BMP280;49455;52.252;9.124;2023-03-04T02:01:12;100217.84;;;4.26
49154;BMP280;49455;52.252;9.124;2023-03-04T02:06:13;100210.88;;;4.24
49154;BMP280;49455;52.252;9.124;2023-03-04T02:11:14;100208.41;;;4.25
49154;BMP280;49455;52.252;9.124;2023-03-04T02:16:15;100196.97;;;4.33
49154;BMP280;49455;52.252;9.124;2023-03-04T02:21:24;100203.13;;;4.37
49154;BMP280;49455;52.252;9.124;2023-03-04T02:26:26;100201.34;;;4.36
49154;BMP280;49455;52.252;9.124;2023-03-04T02:31:53;100200.56;;;4.37
49154;BMP280;49455;52.252;9.124;2023-03-04T02:36:54;100189.53;;;4.38
49154;BMP280;49455;52.252;9.124;2023-03-04T02:41:55;100185.56;;;4.43
49154;BMP280;49455;52.252;9.124;2023-03-04T02:46:58;100189.13;;;4.45
49154;BMP280;49455;52.252;9.124;2023-03-04T02:52:05;100183.66;;;4.39
49154;BMP280;49455;52.252;9.124;2023-03-04T02:57:08;100188.84;;;4.40
49154;BMP280;49455;52.252;9.124;2023-03-04T03:02:11;100175.53;;;4.31
49154;BMP280;49455;52.252;9.124;2023-03-04T03:07:11;100181.78;;;4.36
49154;BMP280;49455;52.252;9.124;2023-03-04T03:12:12;100175.97;;;4.39
49154;BMP280;49455;52.252;9.124;2023-03-04T03:17:13;100173.47;;;4.40
49154;BMP280;49455;52.252;9.124;2023-03-04T03:22:13;100165.09;;;4.43
49154;BMP280;49455;52.252;9.124;2023-03-04T03:27:14;100167.66;;;4.43
49154;BMP280;49455;52.252;9.124;2023-03-04T03:32:14;100160.97;;;4.45
49154;BMP280;49455;52.252;9.124;2023-03-04T03:37:15;100162.91;;;4.49
49154;BMP280;49455;52.252;9.124;2023-03-04T03:42:15;100168.66;;;4.45
49154;BMP280;49455;52.252;9.124;2023-03-04T03:47:16;100166.84;;;4.44
49154;BMP280;49455;52.252;9.124;2023-03-04T03:52:16;100168.53;;;4.43
49154;BMP280;49455;52.252;9.124;2023-03-04T03:57:17;100155.91;;;4.46
49154;BMP280;49455;52.252;9.124;2023-03-04T04:02:17;100148.88;;;4.42
49154;BMP280;49455;52.252;9.124;2023-03-04T04:07:18;100155.84;;;4.45
49154;BMP280;49455;52.252;9.124;2023-03-04T04:12:18;100148.19;;;4.45
49154;BMP280;49455;52.252;9.124;2023-03-04T04:17:19;100136.16;;;4.44
49154;BMP280;49455;52.252;9.124;2023-03-04T04:22:20;100142.25;;;4.46
49154;BMP280;49455;52.252;9.124;2023-03-04T04:27:20;100140.50;;;4.45
49154;BMP280;49455;52.252;9.124;2023-03-04T04:32:21;100140.50;;;4.45
49154;BMP280;49455;52.252;9.124;2023-03-04T04:37:21;100140.56;;;4.46
49154;BMP280;49455;52.252;9.124;2023-03-04T04:42:22;100143.13;;;4.46
49154;BMP280;49455;52.252;9.124;2023-03-04T04:47:23;100140.50;;;4.45
49154;BMP280;49455;52.252;9.124;2023-03-04T04:52:23;100134.75;;;4.49
49154;BMP280;49455;52.252;9.124;2023-03-04T04:57:24;100122.75;;;4.48
49154;BMP280;49455;52.252;9.124;2023-03-04T05:02:24;100136.34;;;4.47
49154;BMP280;49455;52.252;9.124;2023-03-04T05:07:24;100133.69;;;4.45
49154;BMP280;49455;52.252;9.124;2023-03-04T05:12:25;100129.94;;;4.39
49154;BMP280;49455;52.252;9.124;2023-03-04T05:17:25;100125.94;;;4.29
49154;BMP280;49455;52.252;9.124;2023-03-04T05:22:26;100122.41;;;4.27
49154;BMP280;49455;52.252;9.124;2023-03-04T05:27:26;100121.88;;;4.19
49154;BMP280;49455;52.252;9.124;2023-03-04T05:32:27;100126.28;;;4.21
49154;BMP280;49455;52.252;9.124;2023-03-04T05:37:27;100122.75;;;4.19
49154;BMP280;49455;52.252;9.124;2023-03-04T05:42:27;100122.75;;;4.19
49154;BMP280;49455;52.252;9.124;2023-03-04T05:47:28;100118.63;;;4.21
49154;BMP280;49455;52.252;9.124;2023-03-04T05:52:28;100124.63;;;4.21
49154;BMP280;49455;52.252;9.124;2023-03-04T05:57:29;100127.81;;;4.18
49154;BMP280;49455;52.252;9.124;2023-03-04T06:02:29;100124.25;;;4.16
49154;BMP280;49455;52.252;9.124;2023-03-04T06:07:30;100127.53;;;4.13
49154;BMP280;49455;52.252;9.124;2023-03-04T06:12:30;100131.66;;;4.11
49154;BMP280;49455;52.252;9.124;2023-03-04T06:17:31;100128.16;;;4.09
49154;BMP280;49455;52.252;9.124;2023-03-04T06:22:32;100136.78;;;4.11
49154;BMP280;49455;52.252;9.124;2023-03-04T06:27:33;100133.50;;;4.14
49154;BMP280;49455;52.252;9.124;2023-03-04T06:32:33;100137.16;;;4.17
49154;BMP280;49455;52.252;9.124;2023-03-04T06:37:34;100128.84;;;4.21
49154;BMP280;49455;52.252;9.124;2023-03-04T06:42:35;100127.44;;;4.26
49154;BMP280;49455;52.252;9.124;2023-03-04T06:47:35;100129.19;;;4.27
49154;BMP280;49455;52.252;9.124;2023-03-04T06:52:36;100127.69;;;4.30
49154;BMP280;49455;52.252;9.124;2023-03-04T06:57:38;100129.72;;;4.36
49154;BMP280;49455;52.252;9.124;2023-03-04T07:02:38;100131.69;;;4.40
49154;BMP280;49455;52.252;9.124;2023-03-04T07:07:38;100136.97;;;4.43
49154;BMP280;49455;52.252;9.124;2023-03-04T07:12:39;100136.44;;;4.48
49154;BMP280;49455;52.252;9.124;2023-03-04T07:17:39;100140.69;;;4.48
49154;BMP280;49455;52.252;9.124;2023-03-04T07:22:40;100132.53;;;4.54
49154;BMP280;49455;52.252;9.124;2023-03-04T07:27:40;100132.53;;;4.69
49154;BMP280;49455;52.252;9.124;2023-03-04T07:32:40;100133.84;;;4.62
49154;BMP280;49455;52.252;9.124;2023-03-04T07:37:41;100135.00;;;4.67
49154;BMP280;49455;52.252;9.124;2023-03-04T07:42:41;100131.63;;;4.68
49154;BMP280;49455;52.252;9.124;2023-03-04T07:47:45;100129.19;;;4.70
49154;BMP280;49455;52.252;9.124;2023-03-04T07:52:47;100133.47;;;4.85
49154;BMP280;49455;52.252;9.124;2023-03-04T07:57:48;100131.41;;;4.94
49154;BMP280;49455;52.252;9.124;2023-03-04T08:02:48;100127.88;;;4.92
49154;BMP280;49455;52.252;9.124;2023-03-04T08:07:48;100134.25;;;4.98
49154;BMP280;49455;52.252;9.124;2023-03-04T08:12:49;100137.09;;;4.88
49154;BMP280;49455;52.252;9.124;2023-03-04T08:17:49;100140.09;;;4.81
49154;BMP280;49455;52.252;9.124;2023-03-04T08:22:50;100126.50;;;4.82
49154;BMP280;49455;52.252;9.124;2023-03-04T08:27:51;100128.97;;;4.81
49154;BMP280;49455;52.252;9.124;2023-03-04T08:32:51;100127.72;;;4.89
49154;BMP280;49455;52.252;9.124;2023-03-04T08:37:51;100115.25;;;4.95
49154;BMP280;49455;52.252;9.124;2023-03-04T08:42:52;100118.84;;;5.12
49154;BMP280;49455;52.252;9.124;2023-03-04T08:47:52;100128.91;;;5.10
49154;BMP280;49455;52.252;9.124;2023-03-04T08:52:53;100129.41;;;5.18
49154;BMP280;49455;52.252;9.124;2023-03-04T08:57:53;100120.13;;;5.20
49154;BMP280;49455;52.252;9.124;2023-03-04T09:02:54;100135.97;;;5.29
49154;BMP280;49455;52.252;9.124;2023-03-04T09:07:54;100133.78;;;5.51
49154;BMP280;49455;52.252;9.124;2023-03-04T09:12:55;100132.22;;;5.39
49154;BMP280;49455;52.252;9.124;2023-03-04T09:17:55;100141.47;;;5.51
49154;BMP280;49455;52.252;9.124;2023-03-04T09:22:55;100138.75;;;5.48
49154;BMP280;49455;52.252;9.124;2023-03-04T09:27:56;100140.22;;;5.74
49154;BMP280;49455;52.252;9.124;2023-03-04T09:32:56;100141.31;;;5.64
49154;BMP280;49455;52.252;9.124;2023-03-04T09:37:57;100144.59;;;5.61
49154;BMP280;49455;52.252;9.124;2023-03-04T09:43:01;100139.63;;;5.64
49154;BMP280;49455;52.252;9.124;2023-03-04T09:48:02;100139.88;;;5.53
49154;BMP280;49455;52.252;9.124;2023-03-04T09:53:24;100135.78;;;5.56
49154;BMP280;49455;52.252;9.124;2023-03-04T09:58:49;100138.09;;;5.52
49154;BMP280;49455;52.252;9.124;2023-03-04T10:09:22;100129.94;;;5.59
49154;BMP280;49455;52.252;9.124;2023-03-04T10:19:41;100124.81;;;5.59
49154;BMP280;49455;52.252;9.124;2023-03-04T10:24:45;100115.47;;;5.75
49154;BMP280;49455;52.252;9.124;2023-03-04T10:29:46;100114.09;;;5.81
49154;BMP280;49455;52.252;9.124;2023-03-04T10:34:46;100112.00;;;5.90
49154;BMP280;49455;52.252;9.124;2023-03-04T10:39:48;100105.53;;;5.81
49154;BMP280;49455;52.252;9.124;2023-03-04T10:44:58;100107.81;;;5.92
49154;BMP280;49455;52.252;9.124;2023-03-04T10:50:02;100087.16;;;5.89
49154;BMP280;49455;52.252;9.124;2023-03-04T10:55:05;100101.41;;;6.00
49154;BMP280;49455;52.252;9.124;2023-03-04T11:05:21;100098.69;;;6.30
49154;BMP280;49455;52.252;9.124;2023-03-04T11:15:27;100078.09;;;6.63
49154;BMP280;49455;52.252;9.124;2023-03-04T11:20:36;100085.50;;;6.57
49154;BMP280;49455;52.252;9.124;2023-03-04T11:25:45;100082.13;;;6.93
49154;BMP280;49455;52.252;9.124;2023-03-04T11:36:09;100077.59;;;6.70
49154;BMP280;49455;52.252;9.124;2023-03-04T11:41:16;100077.44;;;6.32
49154;BMP280;49455;52.252;9.124;2023-03-04T11:56:51;100079.97;;;5.82
49154;BMP280;49455;52.252;9.124;2023-03-04T12:02:12;100083.88;;;5.44
49154;BMP280;49455;52.252;9.124;2023-03-04T12:13:06;100077.28;;;5.49
49154;BMP280;49455;52.252;9.124;2023-03-04T12:29:01;100048.16;;;5.79
49154;BMP280;49455;52.252;9.124;2023-03-04T12:39:33;100040.28;;;6.59
49154;BMP280;49455;52.252;9.124;2023-03-04T12:50:39;100027.00;;;7.59
49154;BMP280;49455;52.252;9.124;2023-03-04T12:55:44;100021.19;;;7.07
49154;BMP280;49455;52.252;9.124;2023-03-04T13:16:31;100013.13;;;5.79
49154;BMP280;49455;52.252;9.124;2023-03-04T13:21:44;100027.88;;;5.68
49154;BMP280;49455;52.252;9.124;2023-03-04T13:26:45;100008.09;;;5.65
49154;BMP280;49455;52.252;9.124;2023-03-04T13:32:09;100011.06;;;5.72
49154;BMP280;49455;52.252;9.124;2023-03-04T13:37:32;100012.75;;;5.72
49154;BMP280;49455;52.252;9.124;2023-03-04T13:42:38;100015.19;;;5.86
49154;BMP280;49455;52.252;9.124;2023-03-04T13:47:43;100017.06;;;5.73
49154;BMP280;49455;52.252;9.124;2023-03-04T13:52:43;100019.31;;;5.51
49154;BMP280;49455;52.252;9.124;2023-03-04T13:57:48;100020.84;;;5.32
49154;BMP280;49455;52.252;9.124;2023-03-04T14:02:49;100019.06;;;5.47
49154;BMP280;49455;52.252;9.124;2023-03-04T14:07:50;100025.41;;;5.53
49154;BMP280;49455;52.252;9.124;2023-03-04T14:12:52;100023.31;;;5.46
49154;BMP280;49455;52.252;9.124;2023-03-04T14:17:56;100023.56;;;5.51
49154;BMP280;49455;52.252;9.124;2023-03-04T14:23:00;100015.94;;;5.52
49154;BMP280;49455;52.252;9.124;2023-03-04T14:28:19;100003.22;;;5.54
49154;BMP280;49455;52.252;9.124;2023-03-04T14:33:23;99989.25;;;5.65
49154;BMP280;49455;52.252;9.124;2023-03-04T14:43:24;99987.97;;;5.88
49154;BMP280;49455;52.252;9.124;2023-03-04T14:48:29;99996.59;;;5.90
49154;BMP280;49455;52.252;9.124;2023-03-04T14:53:31;99983.41;;;5.83
49154;BMP280;49455;52.252;9.124;2023-03-04T14:58:34;99979.50;;;5.73
49154;BMP280;49455;52.252;9.124;2023-03-04T15:03:35;99980.75;;;5.66
49154;BMP280;49455;52.252;9.124;2023-03-04T15:08:36;99966.81;;;5.76
49154;BMP280;49455;52.252;9.124;2023-03-04T15:13:41;99974.69;;;5.64
49154;BMP280;49455;52.252;9.124;2023-03-04T15:19:02;99974.06;;;5.52
49154;BMP280;49455;52.252;9.124;2023-03-04T15:24:05;99986.13;;;5.21
49154;BMP280;49455;52.252;9.124;2023-03-04T15:34:14;99978.03;;;5.14
49154;BMP280;49455;52.252;9.124;2023-03-04T15:39:16;99970.59;;;5.18
49154;BMP280;49455;52.252;9.124;2023-03-04T15:44:17;99975.72;;;5.18
49154;BMP280;49455;52.252;9.124;2023-03-04T15:49:17;99972.19;;;5.16
49154;BMP280;49455;52.252;9.124;2023-03-04T15:54:18;99973.16;;;5.03
49154;BMP280;49455;52.252;9.124;2023-03-04T15:59:18;99974.25;;;4.92
49154;BMP280;49455;52.252;9.124;2023-03-04T16:04:20;99989.38;;;4.72
49154;BMP280;49455;52.252;9.124;2023-03-04T16:09:20;99988.31;;;4.68
49154;BMP280;49455;52.252;9.124;2023-03-04T16:14:21;99994.16;;;4.66
49154;BMP280;49455;52.252;9.124;2023-03-04T16:19:21;99988.69;;;4.60
49154;BMP280;49455;52.252;9.124;2023-03-04T16:24:21;99978.06;;;4.68
49154;BMP280;49455;52.252;9.124;2023-03-04T16:29:22;99969.47;;;4.66
49154;BMP280;49455;52.252;9.124;2023-03-04T16:34:22;99966.38;;;4.57
49154;BMP280;49455;52.252;9.124;2023-03-04T16:39:23;99972.31;;;4.56
49154;BMP280;49455;52.252;9.124;2023-03-04T16:44:24;99963.38;;;4.64
49154;BMP280;49455;52.252;9.124;2023-03-04T16:49:24;99959.59;;;4.58
49154;BMP280;49455;52.252;9.124;2023-03-04T16:54:28;99962.22;;;4.59
49154;BMP280;49455;52.252;9.124;2023-03-04T16:59:29;99958.69;;;4.57
49154;BMP280;49455;52.252;9.124;2023-03-04T17:04:29;99967.56;;;4.48
49154;BMP280;49455;52.252;9.124;2023-03-04T17:09:30;99969.88;;;4.44
49154;BMP280;49455;52.252;9.124;2023-03-04T17:14:30;99979.56;;;4.49
49154;BMP280;49455;52.252;9.124;2023-03-04T17:19:32;99987.75;;;4.28
49154;BMP280;49455;52.252;9.124;2023-03-04T17:24:32;99986.50;;;4.21
49154;BMP280;49455;52.252;9.124;2023-03-04T17:29:33;99988.72;;;4.16
49154;BMP280;49455;52.252;9.124;2023-03-04T17:34:34;99987.06;;;4.16
49154;BMP280;49455;52.252;9.124;2023-03-04T17:39:34;99988.22;;;4.07
49154;BMP280;49455;52.252;9.124;2023-03-04T17:44:35;99993.75;;;4.14
49154;BMP280;49455;52.252;9.124;2023-03-04T17:49:35;99992.72;;;4.11
49154;BMP280;49455;52.252;9.124;2023-03-04T17:54:36;99989.59;;;4.16
49154;BMP280;49455;52.252;9.124;2023-03-04T17:59:36;99996.41;;;4.16
49154;BMP280;49455;52.252;9.124;2023-03-04T18:04:36;99987.75;;;4.14
49154;BMP280;49455;52.252;9.124;2023-03-04T18:09:37;99995.53;;;4.15
49154;BMP280;49455;52.252;9.124;2023-03-04T18:14:37;99988.63;;;4.14
49154;BMP280;49455;52.252;9.124;2023-03-04T18:19:38;99980.63;;;4.08
49154;BMP280;49455;52.252;9.124;2023-03-04T18:24:38;99983.34;;;4.11
49154;BMP280;49455;52.252;9.124;2023-03-04T18:29:39;99985.50;;;4.04
49154;BMP280;49455;52.252;9.124;2023-03-04T18:34:39;99984.59;;;4.03
49154;BMP280;49455;52.252;9.124;2023-03-04T18:39:39;99984.97;;;3.95
49154;BMP280;49455;52.252;9.124;2023-03-04T18:44:40;99992.06;;;3.85
49154;BMP280;49455;52.252;9.124;2023-03-04T18:49:42;100001.91;;;3.64
49154;BMP280;49455;52.252;9.124;2023-03-04T18:54:42;100000.03;;;3.62
49154;BMP280;49455;52.252;9.124;2023-03-04T19:04:51;100001.53;;;3.59
49154;BMP280;49455;52.252;9.124;2023-03-04T19:09:52;99996.25;;;3.56
49154;BMP280;49455;52.252;9.124;2023-03-04T19:14:52;100000.38;;;3.54
49154;BMP280;49455;52.252;9.124;2023-03-04T19:19:53;100002.94;;;3.54
49154;BMP280;49455;52.252;9.124;2023-03-04T19:24:53;99999.25;;;3.49
49154;BMP280;49455;52.252;9.124;2023-03-04T19:29:54;100008.69;;;3.50
49154;BMP280;49455;52.252;9.124;2023-03-04T19:34:54;100012.81;;;3.48
49154;BMP280;49455;52.252;9.124;2023-03-04T19:39:55;100007.78;;;3.49
49154;BMP280;49455;52.252;9.124;2023-03-04T19:44:55;100013.50;;;3.45
49154;BMP280;49455;52.252;9.124;2023-03-04T19:49:56;100015.66;;;3.52
49154;BMP280;49455;52.252;9.124;2023-03-04T19:54:56;100023.53;;;3.42
49154;BMP280;49455;52.252;9.124;2023-03-04T19:59:57;100010.84;;;3.44
49154;BMP280;49455;52.252;9.124;2023-03-04T20:04:57;100009.44;;;3.49
49154;BMP280;49455;52.252;9.124;2023-03-04T20:09:58;100028.13;;;3.33
49154;BMP280;49455;52.252;9.124;2023-03-04T20:14:58;100022.25;;;3.22
49154;BMP280;49455;52.252;9.124;2023-03-04T20:19:59;100020.50;;;3.21
49154;BMP280;49455;52.252;9.124;2023-03-04T20:24:59;100016.59;;;3.13
49154;BMP280;49455;52.252;9.124;2023-03-04T20:30:00;100025.25;;;3.15
49154;BMP280;49455;52.252;9.124;2023-03-04T20:35:00;100025.75;;;3.09
49154;BMP280;49455;52.252;9.124;2023-03-04T20:40:00;100024.47;;;3.03
49154;BMP280;49455;52.252;9.124;2023-03-04T20:45:01;100018.63;;;3.04
49154;BMP280;49455;52.252;9.124;2023-03-04T20:50:02;100022.72;;;3.02
49154;BMP280;49455;52.252;9.124;2023-03-04T20:55:02;100006.19;;;2.96
49154;BMP280;49455;52.252;9.124;2023-03-04T21:00:04;100006.94;;;2.95
49154;BMP280;49455;52.252;9.124;2023-03-04T21:05:04;100002.22;;;3.00
49154;BMP280;49455;52.252;9.124;2023-03-04T21:10:05;100017.25;;;2.96
49154;BMP280;49455;52.252;9.124;2023-03-04T21:15:06;100007.75;;;2.94
49154;BMP280;49455;52.252;9.124;2023-03-04T21:20:15;100015.47;;;2.95
49154;BMP280;49455;52.252;9.124;2023-03-04T21:25:16;100012.06;;;2.95
49154;BMP280;49455;52.252;9.124;2023-03-04T21:30:16;100005.00;;;2.91
49154;BMP280;49455;52.252;9.124;2023-03-04T21:35:17;100008.25;;;2.88
49154;BMP280;49455;52.252;9.124;2023-03-04T21:40:17;100002.09;;;2.85
49154;BMP280;49455;52.252;9.124;2023-03-04T21:45:18;100000.59;;;2.88
49154;BMP280;49455;52.252;9.124;2023-03-04T21:50:18;99992.06;;;2.88
49154;BMP280;49455;52.252;9.124;2023-03-04T21:55:20;99991.38;;;2.90
49154;BMP280;49455;52.252;9.124;2023-03-04T22:00:20;99987.47;;;2.82
49154;BMP280;49455;52.252;9.124;2023-03-04T22:05:21;99982.19;;;2.79
49154;BMP280;49455;52.252;9.124;2023-03-04T22:10:21;99974.53;;;2.79
49154;BMP280;49455;52.252;9.124;2023-03-04T22:15:22;99970.31;;;2.80
49154;BMP280;49455;52.252;9.124;2023-03-04T22:20:22;99969.31;;;2.78
49154;BMP280;49455;52.252;9.124;2023-03-04T22:25:22;99962.66;;;2.80
49154;BMP280;49455;52.252;9.124;2023-03-04T22:30:23;99966.19;;;2.82
49154;BMP280;49455;52.252;9.124;2023-03-04T22:35:23;99972.34;;;2.85
49154;BMP280;49455;52.252;9.124;2023-03-04T22:40:24;99968.44;;;2.77
49154;BMP280;49455;52.252;9.124;2023-03-04T22:45:24;99963.16;;;2.74
49154;BMP280;49455;52.252;9.124;2023-03-04T22:50:25;99962.19;;;2.72
49154;BMP280;49455;52.252;9.124;2023-03-04T22:55:26;99966.03;;;2.66
49154;BMP280;49455;52.252;9.124;2023-03-04T23:00:28;99958.66;;;2.70
49154;BMP280;49455;52.252;9.124;2023-03-04T23:05:28;99958.47;;;2.68
49154;BMP280;49455;52.252;9.124;2023-03-04T23:10:29;99957.50;;;2.66
49154;BMP280;49455;52.252;9.124;2023-03-04T23:15:29;99960.66;;;2.62
49154;BMP280;49455;52.252;9.124;2023-03-04T23:20:31;99939.38;;;2.61
49154;BMP280;49455;52.252;9.124;2023-03-04T23:25:33;99943.41;;;2.58
49154;BMP280;49455;52.252;9.124;2023-03-04T23:30:33;99930.47;;;2.55
49154;BMP280;49455;52.252;9.124;2023-03-04T23:35:34;99937.22;;;2.54
49154;BMP280;49455;52.252;9.124;2023-03-04T23:40:34;99935.47;;;2.53
49154;BMP280;49455;52.252;9.124;2023-03-04T23:45:36;99935.75;;;2.58
49154;BMP280;49455;52.252;9.124;2023-03-04T23:50:36;99932.09;;;2.54
49154;BMP280;49455;52.252;9.124;2023-03-04T23:55:37;99933.38;;;2.61
